Terminal Aerodrome Forecast
Issued by NWS

Home | Current Version | Previous Version | Text Only | Print | Product List | Glossary On
Versions: 1 2 3 4 5 6 7 8 9 10 11 12 13 14 15 16 17 18 19 20 21 22 23 24 25 26 27 28 29 30 31 32 33 34 35 36 37 38 39 40 41 42 43 44 45 46 47 48 49 50
000
FTUS46 KPQR 101133
TAFONP
TAF
KONP 101133Z 1012/1112 02003KT P6SM SCT014
      TEMPO 1012/1014 BKN014
     FM101700 34012G20KT P6SM SKC
     FM110300 36010KT P6SM SKC
     FM110600 33003KT P6SM BKN012
     FM110900 33003KT 4SM BR BKN009=

USA.gov is the U.S. government's official web portal to all federal, state and local government web resources and services.